METAR stanice u blizini

 

LYBE - Beograd / Surčin, Srbija
Ažurirano: 23/10/2019 22:00
Vedro
Vedro
 Pravac vetra IJI
Vetar: IJI 15 km/h
Temperatura: 16°C
Tačka rose: 8°C
Vlažnost: 59%
Pritisak: 1019 hPa
Pregled: Vedro
Vidljivost: greater than 10 km
2019/10/23 20:00 LYBE 232000Z 11008KT CAVOK 16/08 Q1019 NOSIG
LYBT - Beograd / Batajnica, Srbija
Ažurirano: 23/10/2019 22:00
Vedro
Vedro
 Pravac vetra ISI
Vetar: ISI 11 km/h
Temperatura: 19°C
Tačka rose: 10°C
Vlažnost: 56%
Pritisak: 1018 hPa
Pregled: Vedro
Vidljivost: greater than 10 km
2019/10/23 20:00 LYBT 232000Z 07006KT 030V090 CAVOK 19/10 Q1018 NOSIG
LYVR - Vršac, Srbija
Ažurirano: 23/10/2019 18:00
NOT Current
Vedro
Vedro
 Pravac vetra varies
Vetar: varies 2 km/h
Temperatura: 22°C
Tačka rose: 7°C
Vlažnost: 38%
Pritisak: 1019 hPa
Pregled: Vedro
Vidljivost: greater than 10 km
2019/10/23 16:00 LYVR 231600Z VRB01KT CAVOK 22/07 Q1019 NOSIG
 
LYKV - Lađevci, Srbija
Ažurirano: 23/10/2019 22:00
Vedro
Vedro
 Pravac vetra SI
Vetar: SI 2 km/h
Temperatura: 9°C
Tačka rose: 8°C
Vlažnost: 94%
Pritisak: 1020 hPa
Pregled: Vedro
Vidljivost: greater than 10 km
2019/10/23 20:00 LYKV 232000Z 05001KT CAVOK 09/08 Q1020 NOSIG
LYNI - Niš, Srbija
Ažurirano: 23/10/2019 22:00
Vedro
Vedro
 Pravac vetra JI
Vetar: JI 6 km/h
Temperatura: 13°C
Tačka rose: 7°C
Vlažnost: 67%
Pritisak: 1021 hPa
Pregled: Vedro
Vidljivost: greater than 10 km
2019/10/23 20:00 LYNI 232000Z 13003KT CAVOK 13/07 Q1021 NOSIG
BKPR - Priština, Srbija
Ažurirano: 23/10/2019 22:00
Vedro
Vedro
 Pravac vetra calm
Vetar: Tišina
Temperatura: 10°C
Tačka rose: 2°C
Vlažnost: 58%
Pritisak: 1022 hPa
Pregled: Vedro
Vidljivost: greater than 10 km
2019/10/23 20:00 BKPR 232000Z 00000KT CAVOK 10/02 Q1022 NOSIG
 
LHPP - Pecs / Pogany, Hungary
Ažurirano: 23/10/2019 18:45
NOT Current
Partly Cloudy
Partly Cloudy
 Pravac vetra JJI
Vetar: JJI 4 km/h
Temperatura: 19°C
Tačka rose: 11°C
Vlažnost: 60%
Pritisak: 1019 hPa
Oblaci: Partly Cloudy
Vidljivost: 6 km
2019/10/23 16:45 LHPP 231645Z 15002KT 6000 NSC 19/11 Q1019
LHUD - Szeged, Hungary
Ažurirano: 04/07/2019 01:45
NOT Current
Vedro
Vedro
 Pravac vetra S
Vetar: S 7 km/h
Temperatura: 18°C
Tačka rose: 13°C
Vlažnost: 73%
Pritisak: 1019 hPa
Pregled: Vedro
Vidljivost: greater than 10 km
2019/07/03 23:45 LHUD 032345Z 35004KT CAVOK 18/13 Q1019
LRTR - Timisoara, Romania
Ažurirano: 23/10/2019 22:00
Vedro
Vedro
 Pravac vetra ISI
Vetar: ISI 7 km/h
Temperatura: 14°C
Tačka rose: 8°C
Vlažnost: 67%
Pritisak: 1019 hPa
Pregled: Vedro
Vidljivost: greater than 10 km
2019/10/23 20:00 LRTR 232000Z 06004KT CAVOK 14/08 Q1019
 
LRCV - Craiova, Romania
Ažurirano: 23/10/2019 22:00
Vedro
Vedro
 Pravac vetra I
Vetar: I 6 km/h
Temperatura: 14°C
Tačka rose: 9°C
Vlažnost: 72%
Pritisak: 1021 hPa
Pregled: Vedro
Vidljivost: greater than 10 km
2019/10/23 20:00 LRCV 232000Z 09003KT CAVOK 14/09 Q1021
LBSF - Sofia, Bulgaria
Ažurirano: 23/10/2019 22:00
Vedro
Vedro
 Pravac vetra JJI
Vetar: JJI 9 km/h
Temperatura: 12°C
Tačka rose: 3°C
Vlažnost: 54%
Pritisak: 1023 hPa
Pregled: Vedro
Vidljivost: greater than 10 km
2019/10/23 20:00 LBSF 232000Z 15005KT 130V220 CAVOK 12/03 Q1023 NOSIG
LWSK - Skoplje, Makedonija
Ažurirano: 23/10/2019 22:00
Vedro
Vedro
 Pravac vetra calm
Vetar: Tišina
Temperatura: 11°C
Tačka rose: 4°C
Vlažnost: 62%
Pritisak: 1022 hPa
Pregled: Vedro
Vidljivost: greater than 10 km
2019/10/23 20:00 LWSK 232000Z 00000KT CAVOK 11/04 Q1022 NOSIG
 
LYPG - Podgorica, Crna Gora
Ažurirano: 23/10/2019 22:00
Vedro
Vedro
 Pravac vetra SSZ
Vetar: SSZ 6 km/h
Temperatura: 15°C
Tačka rose: 10°C
Vlažnost: 72%
Pritisak: 1019 hPa
Pregled: Vedro
Vidljivost: greater than 10 km
2019/10/23 20:00 LYPG 232000Z 33003KT CAVOK 15/10 Q1019 NOSIG
LQSA - Sarajevo, Bosna i Hercegovina
Ažurirano: 23/10/2019 22:00
Partly Cloudy
Partly Cloudy
 Pravac vetra JI
Vetar: JI 6 km/h
Temperatura: 8°C
Tačka rose: 6°C
Vlažnost: 87%
Pritisak: 1021 hPa
Oblaci: Partly Cloudy
Vidljivost: 7 km
2019/10/23 20:00 LQSA 232000Z 13003KT 7000 NSC 08/06 Q1021 NOSIG
LDOS - Osijek, Hrvatksa
Ažurirano: 23/10/2019 22:00
Partly Cloudy
Partly Cloudy
 Pravac vetra calm
Vetar: Tišina
Temperatura: 12°C
Tačka rose: 12°C
Vlažnost: 100%
Pritisak: 1018 hPa
Oblaci: Partly Cloudy
Vidljivost: 6 km
2019/10/23 20:00 LDOS 232000Z 00000KT 6000 NSC 12/12 Q1018